createdAt,value
2019-01-29T00:02:12.425Z,2.20
2019-01-29T00:04:42.022Z,2.30
2019-01-29T00:07:11.637Z,2.40
2019-01-29T00:09:41.227Z,2.50
2019-01-29T00:12:10.781Z,2.50
2019-01-29T00:14:40.640Z,2.50
2019-01-29T00:17:10.221Z,2.60
2019-01-29T00:19:39.774Z,2.60
2019-01-29T00:22:09.387Z,2.50
2019-01-29T00:24:38.983Z,2.50
2019-01-29T00:27:08.535Z,2.40
2019-01-29T00:29:38.162Z,2.30
2019-01-29T00:32:07.764Z,2.20
2019-01-29T00:34:37.378Z,2.20
2019-01-29T00:37:07.115Z,2.10
2019-01-29T00:39:36.769Z,2.10
2019-01-29T00:42:06.419Z,2.10
2019-01-29T00:44:36.029Z,2.00
2019-01-29T00:47:05.800Z,2.00
2019-01-29T00:49:35.404Z,2.10
2019-01-29T00:52:07.441Z,2.10
2019-01-29T00:54:37.044Z,2.10
2019-01-29T00:57:06.723Z,2.20
2019-01-29T00:59:36.295Z,2.20
2019-01-29T01:02:06.405Z,2.20
2019-01-29T01:04:35.963Z,2.20
2019-01-29T01:07:13.115Z,2.10
2019-01-29T01:09:57.124Z,2.10
2019-01-29T01:12:21.318Z,2.10
2019-01-29T01:14:50.888Z,2.00
2019-01-29T01:17:20.559Z,2.00
2019-01-29T01:19:50.175Z,2.00
2019-01-29T01:22:19.749Z,1.90
2019-01-29T01:24:49.388Z,1.90
2019-01-29T01:27:18.976Z,1.80
2019-01-29T01:29:50.685Z,1.80
2019-01-29T01:32:20.239Z,1.90
2019-01-29T01:34:49.859Z,1.90
2019-01-29T01:37:19.402Z,1.90
2019-01-29T01:39:50.078Z,1.80
2019-01-29T01:42:19.671Z,1.80
2019-01-29T01:44:49.220Z,1.80
2019-01-29T01:47:18.777Z,1.80
2019-01-29T01:49:48.379Z,1.80
2019-01-29T01:52:18.005Z,1.90
2019-01-29T01:54:47.533Z,2.00
2019-01-29T01:57:17.142Z,2.00
2019-01-29T01:59:46.700Z,2.00
2019-01-29T02:02:16.226Z,2.00
2019-01-29T02:04:45.922Z,2.10
2019-01-29T02:07:15.492Z,2.20
2019-01-29T02:09:45.063Z,2.20
2019-01-29T02:12:15.756Z,2.30
2019-01-29T02:14:45.371Z,2.40
2019-01-29T02:17:14.962Z,2.40
2019-01-29T02:19:44.568Z,2.50
2019-01-29T02:22:14.151Z,2.50
2019-01-29T02:24:57.744Z,2.60
2019-01-29T02:27:27.331Z,2.50
2019-01-29T02:32:56.071Z,2.20
2019-01-29T02:35:25.692Z,2.10
2019-01-29T02:37:55.263Z,2.00
2019-01-29T02:41:25.663Z,2.00
2019-01-29T02:43:55.220Z,2.00
2019-01-29T02:46:24.808Z,1.90
2019-01-29T02:48:54.411Z,1.90
2019-01-29T02:51:23.977Z,1.90
2019-01-29T02:54:03.737Z,1.90
2019-01-29T02:56:38.012Z,1.90
2019-01-29T02:59:07.691Z,1.90
2019-01-29T03:01:37.326Z,1.90
2019-01-29T03:04:06.968Z,1.90
2019-01-29T03:06:36.630Z,2.00
2019-01-29T03:09:09.384Z,2.00
2019-01-29T03:11:38.930Z,2.00
2019-01-29T03:14:08.689Z,2.00
2019-01-29T03:16:38.295Z,2.00
2019-01-29T03:19:07.950Z,2.00
2019-01-29T03:21:37.558Z,2.10
2019-01-29T03:24:07.342Z,2.10
2019-01-29T03:26:36.888Z,2.20
2019-01-29T03:29:06.642Z,2.30
2019-01-29T03:31:36.197Z,2.30
2019-01-29T03:34:05.747Z,2.40
2019-01-29T03:36:35.321Z,2.40
2019-01-29T03:39:08.233Z,2.40
2019-01-29T03:41:37.912Z,2.40
2019-01-29T03:44:07.975Z,2.40
2019-01-29T03:46:37.548Z,2.40
2019-01-29T03:49:07.318Z,2.50
2019-01-29T03:51:36.977Z,2.50
2019-01-29T03:54:07.967Z,2.50
2019-01-29T03:56:37.566Z,2.50
2019-01-29T03:59:07.274Z,2.60
2019-01-29T04:01:55.892Z,2.60
2019-01-29T04:04:25.558Z,2.70
2019-01-29T04:06:55.091Z,2.70
2019-01-29T04:09:24.633Z,2.70
2019-01-29T04:11:54.225Z,2.70
2019-01-29T04:14:23.806Z,2.60
2019-01-29T04:16:53.393Z,2.70
2019-01-29T04:19:22.985Z,2.70
2019-01-29T04:21:52.556Z,2.70
2019-01-29T04:24:37.330Z,2.70
2019-01-29T04:27:07.006Z,2.70
2019-01-29T04:29:36.548Z,2.70
2019-01-29T04:32:06.247Z,2.60
2019-01-29T04:34:35.829Z,2.50
2019-01-29T04:37:05.577Z,2.40
2019-01-29T04:39:35.162Z,2.30
2019-01-29T04:42:05.323Z,2.20
2019-01-29T04:44:34.926Z,2.20
2019-01-29T04:47:04.654Z,2.10
2019-01-29T04:49:34.134Z,2.10
2019-01-29T04:52:03.778Z,2.10
2019-01-29T04:54:33.295Z,2.10
2019-01-29T04:57:02.844Z,2.10
2019-01-29T04:59:32.489Z,2.10
2019-01-29T05:02:02.015Z,2.10
2019-01-29T05:04:31.539Z,2.00
2019-01-29T05:07:01.170Z,2.00
2019-01-29T05:09:32.190Z,2.00
2019-01-29T05:12:04.166Z,1.90
2019-01-29T05:14:33.824Z,1.90
2019-01-29T05:17:03.395Z,1.90
2019-01-29T05:19:32.949Z,1.90
2019-01-29T05:22:02.603Z,1.90
2019-01-29T05:24:32.252Z,1.90
2019-01-29T05:27:01.795Z,1.90
2019-01-29T05:29:31.417Z,1.90
2019-01-29T05:32:00.976Z,1.80
2019-01-29T05:34:30.585Z,1.80
2019-01-29T05:37:00.149Z,1.80
2019-01-29T05:39:46.987Z,1.80
2019-01-29T05:42:16.570Z,1.70
2019-01-29T05:44:46.129Z,1.70
2019-01-29T05:47:15.715Z,1.60
2019-01-29T05:49:45.311Z,1.70
2019-01-29T05:52:14.956Z,1.70
2019-01-29T05:54:44.491Z,1.70
2019-01-29T05:57:14.159Z,1.60
2019-01-29T05:59:43.748Z,1.70
2019-01-29T06:02:13.331Z,1.60
2019-01-29T06:04:42.931Z,1.60
2019-01-29T06:07:12.558Z,1.60
2019-01-29T06:09:42.168Z,1.60
2019-01-29T06:12:11.825Z,1.60
2019-01-29T06:14:43.210Z,1.70
2019-01-29T06:17:12.810Z,1.70
2019-01-29T06:19:42.448Z,1.60
2019-01-29T06:22:13.544Z,1.60
2019-01-29T06:24:43.108Z,1.50
2019-01-29T06:27:12.711Z,1.50
2019-01-29T06:29:42.287Z,1.50
2019-01-29T06:32:12.345Z,1.50
2019-01-29T06:34:41.947Z,1.50
2019-01-29T06:37:14.347Z,1.40
2019-01-29T06:39:46.574Z,1.40
2019-01-29T06:44:39.837Z,1.40
2019-01-29T06:45:05.312Z,1.40
2019-01-29T06:47:34.849Z,1.40
2019-01-29T06:50:05.372Z,1.40
2019-01-29T06:52:34.973Z,1.40
2019-01-29T06:55:05.595Z,1.40
2019-01-29T06:57:35.160Z,1.40
2019-01-29T07:00:06.596Z,1.40
2019-01-29T07:02:37.911Z,1.40
2019-01-29T07:05:10.271Z,1.40
2019-01-29T07:07:52.285Z,1.40
2019-01-29T07:10:22.900Z,1.50
2019-01-29T07:12:54.573Z,1.50
2019-01-29T07:15:42.913Z,1.60
2019-01-29T07:18:30.931Z,1.60
2019-01-29T07:21:05.698Z,1.60
2019-01-29T07:23:36.272Z,1.60
2019-01-29T07:26:08.800Z,1.60
2019-01-29T07:28:39.484Z,1.60
2019-01-29T07:31:11.307Z,1.60
2019-01-29T07:33:42.096Z,1.70
2019-01-29T07:36:16.035Z,1.70
2019-01-29T07:38:47.683Z,1.80
2019-01-29T07:41:17.343Z,1.90
2019-01-29T07:43:47.778Z,1.90
2019-01-29T07:46:37.374Z,2.00
2019-01-29T07:49:08.487Z,2.00
2019-01-29T07:51:41.098Z,2.10
2019-01-29T07:54:23.290Z,2.10
2019-01-29T07:56:58.093Z,2.10
2019-01-29T07:59:35.945Z,2.20
2019-01-29T08:02:08.376Z,2.20
2019-01-29T08:04:41.013Z,2.20
2019-01-29T08:07:19.615Z,2.20
2019-01-29T08:09:52.020Z,2.30
2019-01-29T08:12:24.208Z,2.30
2019-01-29T08:15:03.302Z,2.40
2019-01-29T08:17:36.013Z,2.40
2019-01-29T08:20:09.352Z,2.50
2019-01-29T08:25:19.691Z,2.50
2019-01-29T08:27:52.299Z,2.60
2019-01-29T08:30:24.685Z,2.60
2019-01-29T08:33:00.515Z,2.70
2019-01-29T08:35:34.725Z,2.70
2019-01-29T08:38:09.902Z,2.80
2019-01-29T08:40:42.715Z,2.80
2019-01-29T08:43:14.525Z,2.80
2019-01-29T08:45:46.464Z,2.90
2019-01-29T08:48:19.609Z,3.00
2019-01-29T08:50:51.698Z,3.00
2019-01-29T08:53:23.932Z,3.00
2019-01-29T08:55:55.201Z,2.90
2019-01-29T08:58:28.104Z,2.90
2019-01-29T09:01:01.079Z,2.90
2019-01-29T09:03:32.889Z,3.00
2019-01-29T09:06:04.044Z,3.00
2019-01-29T09:08:37.201Z,3.00
2019-01-29T09:11:10.350Z,3.00
2019-01-29T09:13:42.526Z,3.00
2019-01-29T09:16:16.243Z,3.10
2019-01-29T09:18:49.345Z,3.10
2019-01-29T09:21:21.311Z,3.20
2019-01-29T09:23:53.141Z,3.20
2019-01-29T09:26:26.587Z,3.20
2019-01-29T09:28:59.824Z,3.20
2019-01-29T09:31:35.338Z,3.30
2019-01-29T09:34:13.062Z,3.30
2019-01-29T09:36:45.126Z,3.30
2019-01-29T09:39:17.645Z,3.40
2019-01-29T09:41:49.941Z,3.50
2019-01-29T09:44:23.671Z,3.50
2019-01-29T09:47:24.692Z,3.50
2019-01-29T09:49:57.077Z,3.50
2019-01-29T09:52:32.794Z,3.50
2019-01-29T09:55:08.451Z,3.50
2019-01-29T09:57:40.806Z,3.50
2019-01-29T10:00:28.650Z,3.70
2019-01-29T10:03:02.825Z,3.70
2019-01-29T10:05:33.705Z,3.70
2019-01-29T10:08:08.110Z,3.60
2019-01-29T10:10:42.963Z,3.60
2019-01-29T10:13:15.145Z,3.50
2019-01-29T10:15:47.285Z,3.50
2019-01-29T10:18:19.650Z,3.50
2019-01-29T10:20:52.670Z,3.50
2019-01-29T10:23:24.756Z,3.50
2019-01-29T10:25:57.159Z,3.50
2019-01-29T10:28:30.244Z,3.60
2019-01-29T10:31:03.672Z,3.70
2019-01-29T10:33:36.063Z,3.70
2019-01-29T10:36:13.279Z,3.70
2019-01-29T10:39:08.619Z,3.70
2019-01-29T10:41:41.342Z,3.80
2019-01-29T10:44:43.979Z,3.80
2019-01-29T10:47:23.671Z,3.80
2019-01-29T10:49:55.079Z,3.80
2019-01-29T10:52:28.195Z,3.90
2019-01-29T10:55:00.394Z,3.90
2019-01-29T10:57:31.182Z,4.00
2019-01-29T11:00:02.147Z,4.00
2019-01-29T11:02:33.935Z,4.00
2019-01-29T11:05:06.909Z,4.00
2019-01-29T11:07:38.841Z,4.10
2019-01-29T11:10:15.606Z,4.10
2019-01-29T11:12:48.770Z,4.10
2019-01-29T11:15:33.285Z,4.20
2019-01-29T11:18:06.807Z,4.20
2019-01-29T11:20:39.967Z,4.30
2019-01-29T11:26:40.202Z,4.30
2019-01-29T11:29:29.933Z,4.30
2019-01-29T11:32:05.792Z,4.30
2019-01-29T11:34:35.395Z,4.30
2019-01-29T11:37:08.098Z,4.30
2019-01-29T11:39:37.742Z,4.40
2019-01-29T11:42:07.544Z,4.40
2019-01-29T11:44:38.085Z,4.50
2019-01-29T11:47:09.299Z,4.50
2019-01-29T11:49:40.032Z,4.50
2019-01-29T11:52:11.164Z,4.60
2019-01-29T11:54:42.709Z,4.70
2019-01-29T11:57:18.108Z,4.80
2019-01-29T11:59:48.331Z,5.00
2019-01-29T12:02:19.190Z,5.10
2019-01-29T12:05:07.647Z,5.10
2019-01-29T12:07:37.238Z,5.20
2019-01-29T12:10:13.141Z,5.30
2019-01-29T12:12:42.747Z,5.30
2019-01-29T12:15:14.208Z,5.40
2019-01-29T12:17:43.821Z,5.40
2019-01-29T12:20:14.224Z,5.40
2019-01-29T12:22:43.804Z,5.50
2019-01-29T12:25:14.021Z,5.60
2019-01-29T12:27:43.601Z,5.70
2019-01-29T12:30:16.308Z,5.80
2019-01-29T12:32:46.099Z,5.90
2019-01-29T12:35:15.840Z,6.00
2019-01-29T12:37:45.449Z,6.00
2019-01-29T12:40:15.704Z,6.10
2019-01-29T12:42:45.323Z,6.20
2019-01-29T12:45:15.709Z,6.20
2019-01-29T12:47:45.875Z,6.30
2019-01-29T12:50:18.744Z,6.40
2019-01-29T12:53:07.379Z,6.50
2019-01-29T12:55:37.110Z,6.50
2019-01-29T12:58:07.387Z,6.60
2019-01-29T13:00:45.444Z,6.70
2019-01-29T13:03:15.210Z,6.60
2019-01-29T13:05:44.841Z,6.70
2019-01-29T13:08:14.402Z,6.60
2019-01-29T13:10:44.003Z,6.60
2019-01-29T13:13:13.848Z,6.60
2019-01-29T13:15:43.695Z,6.80
2019-01-29T13:18:13.381Z,7.00
2019-01-29T13:20:42.994Z,7.20
2019-01-29T13:23:16.434Z,7.50
2019-01-29T13:25:47.525Z,7.70
2019-01-29T13:28:17.199Z,7.70
2019-01-29T13:30:46.832Z,7.70
2019-01-29T13:33:17.039Z,7.50
2019-01-29T13:35:46.694Z,7.40
2019-01-29T13:38:16.332Z,7.30
2019-01-29T13:40:45.941Z,7.30
2019-01-29T13:43:15.682Z,7.30
2019-01-29T13:45:47.440Z,7.40
2019-01-29T13:48:17.293Z,7.70
2019-01-29T13:50:53.500Z,8.40
2019-01-29T13:53:23.107Z,9.90
2019-01-29T13:55:52.766Z,11.60
2019-01-29T13:58:22.457Z,12.60
2019-01-29T14:00:52.068Z,14.20
2019-01-29T14:03:21.726Z,14.90
2019-01-29T14:05:51.365Z,14.60
2019-01-29T14:08:20.963Z,14.30
2019-01-29T14:10:50.635Z,13.70
2019-01-29T14:13:20.286Z,13.30
2019-01-29T14:15:51.841Z,14.20
2019-01-29T14:18:23.334Z,15.40
2019-01-29T14:20:53.053Z,15.50
2019-01-29T14:23:22.668Z,14.10
2019-01-29T14:25:52.298Z,13.10
2019-01-29T14:28:21.944Z,13.30
2019-01-29T14:30:51.600Z,13.10
2019-01-29T14:33:21.196Z,13.50
2019-01-29T14:35:51.173Z,13.00
2019-01-29T14:39:03.924Z,13.10
2019-01-29T14:41:33.608Z,12.80
2019-01-29T14:44:03.403Z,11.90
2019-01-29T14:46:33.021Z,11.30
2019-01-29T14:49:02.682Z,11.20
2019-01-29T14:51:32.282Z,11.30
2019-01-29T14:54:01.930Z,11.00
2019-01-29T14:56:31.564Z,10.70
2019-01-29T14:59:01.159Z,10.10
2019-01-29T15:01:30.886Z,9.80
2019-01-29T15:04:00.504Z,9.50
2019-01-29T15:06:32.519Z,9.30
2019-01-29T15:09:01.342Z,9.00
2019-01-29T15:11:31.095Z,8.60
2019-01-29T15:14:00.690Z,8.40
2019-01-29T15:16:37.772Z,8.10
2019-01-29T15:19:13.603Z,7.90
2019-01-29T15:21:43.298Z,7.70
2019-01-29T15:24:12.898Z,7.50
2019-01-29T15:26:42.584Z,7.40
2019-01-29T15:29:12.206Z,7.20
2019-01-29T15:36:14.415Z,6.90
2019-01-29T15:38:16.292Z,6.70
2019-01-29T15:40:46.091Z,6.50
2019-01-29T15:43:15.750Z,6.30
2019-01-29T15:45:45.513Z,6.20
2019-01-29T15:48:15.263Z,6.10
2019-01-29T15:50:44.870Z,5.90
2019-01-29T15:53:14.549Z,5.90
2019-01-29T15:55:44.179Z,5.80
2019-01-29T15:58:14.109Z,5.70
2019-01-29T16:00:43.695Z,5.60
2019-01-29T16:03:13.302Z,5.50
2019-01-29T16:05:42.987Z,5.40
2019-01-29T16:08:12.883Z,5.30
2019-01-29T16:11:00.464Z,5.20
2019-01-29T16:13:42.054Z,5.10
2019-01-29T16:16:11.699Z,5.00
2019-01-29T16:18:41.423Z,4.90
2019-01-29T16:21:11.025Z,4.90
2019-01-29T16:23:40.689Z,4.90
2019-01-29T16:26:10.272Z,4.90
2019-01-29T16:28:39.885Z,4.80
2019-01-29T16:31:28.994Z,4.70
2019-01-29T16:33:58.592Z,4.70
2019-01-29T16:36:28.315Z,4.60
2019-01-29T16:38:57.919Z,4.60
2019-01-29T16:41:27.492Z,4.60
2019-01-29T16:43:57.091Z,4.50
2019-01-29T16:46:26.675Z,4.50
2019-01-29T16:48:56.268Z,4.40
2019-01-29T16:51:25.922Z,4.40
2019-01-29T16:53:55.506Z,4.40
2019-01-29T16:56:25.127Z,4.30
2019-01-29T16:58:54.743Z,4.30
2019-01-29T17:01:24.352Z,4.30
2019-01-29T17:03:53.957Z,4.30
2019-01-29T17:06:23.611Z,4.30
2019-01-29T17:08:53.271Z,4.20
2019-01-29T17:11:22.912Z,4.20
2019-01-29T17:13:52.582Z,4.10
2019-01-29T17:16:22.261Z,4.10
2019-01-29T17:18:51.845Z,4.10
2019-01-29T17:21:21.528Z,4.00
2019-01-29T17:23:51.463Z,4.00
2019-01-29T17:26:21.095Z,4.00
2019-01-29T17:28:50.710Z,4.00
2019-01-29T17:31:20.317Z,3.90
2019-01-29T17:33:49.945Z,3.90
2019-01-29T17:36:19.626Z,3.90
2019-01-29T17:38:49.254Z,3.80
2019-01-29T17:41:18.858Z,3.80
2019-01-29T17:43:48.511Z,3.80
2019-01-29T17:46:18.149Z,3.80
2019-01-29T17:49:24.834Z,3.70
2019-01-29T17:51:54.476Z,3.70
2019-01-29T17:54:24.095Z,3.70
2019-01-29T17:56:53.779Z,3.60
2019-01-29T17:59:23.429Z,3.60
2019-01-29T18:01:53.052Z,3.60
2019-01-29T18:04:22.735Z,3.50
2019-01-29T18:06:52.424Z,3.50
2019-01-29T18:09:22.047Z,3.50
2019-01-29T18:11:51.699Z,3.50
2019-01-29T18:14:21.337Z,3.50
2019-01-29T18:16:50.963Z,3.50
2019-01-29T18:19:20.601Z,3.50
2019-01-29T18:21:56.523Z,3.40
2019-01-29T18:24:21.668Z,3.40
2019-01-29T18:26:51.316Z,3.40
2019-01-29T18:29:20.909Z,3.40
2019-01-29T18:31:50.494Z,3.40
2019-01-29T18:34:22.311Z,3.40
2019-01-29T18:36:51.946Z,3.30
2019-01-29T18:39:21.552Z,3.30
2019-01-29T18:41:51.209Z,3.30
2019-01-29T18:50:52.918Z,3.30
2019-01-29T18:53:10.422Z,3.30
2019-01-29T18:55:40.102Z,3.20
2019-01-29T18:58:15.305Z,3.20
2019-01-29T19:00:41.603Z,3.20
2019-01-29T19:03:12.672Z,3.30
2019-01-29T19:05:45.621Z,3.30
2019-01-29T19:08:25.975Z,3.30
2019-01-29T19:10:55.615Z,3.20
2019-01-29T19:13:25.231Z,3.20
2019-01-29T19:15:54.868Z,3.20
2019-01-29T19:18:24.558Z,3.20
2019-01-29T19:20:54.627Z,3.20
2019-01-29T19:23:26.473Z,3.20
2019-01-29T19:25:57.209Z,3.20
2019-01-29T19:28:26.788Z,3.20
2019-01-29T19:30:56.394Z,3.20
2019-01-29T19:33:26.026Z,3.20
2019-01-29T19:35:55.648Z,3.20
2019-01-29T19:38:25.260Z,3.20
2019-01-29T19:40:54.908Z,3.20
2019-01-29T19:43:24.510Z,3.10
2019-01-29T19:45:54.109Z,3.10
2019-01-29T19:48:23.770Z,3.10
2019-01-29T19:50:53.421Z,3.20
2019-01-29T19:53:23.043Z,3.10
2019-01-29T19:55:52.729Z,3.10
2019-01-29T19:58:57.437Z,3.10
2019-01-29T20:01:27.101Z,3.00
2019-01-29T20:03:56.721Z,3.00
2019-01-29T20:06:26.333Z,3.00
2019-01-29T20:08:57.750Z,3.00
2019-01-29T20:11:48.135Z,3.00
2019-01-29T20:14:17.749Z,3.00
2019-01-29T20:17:34.787Z,3.00
2019-01-29T20:20:05.028Z,3.00
2019-01-29T20:22:34.615Z,3.00
2019-01-29T20:25:06.631Z,3.00
2019-01-29T20:27:36.299Z,3.00
2019-01-29T20:30:27.705Z,2.90
2019-01-29T20:33:58.807Z,2.90
2019-01-29T20:40:13.642Z,2.90
2019-01-29T20:42:43.232Z,2.90
2019-01-29T20:52:21.511Z,2.90
2019-01-29T20:54:51.081Z,2.80
2019-01-29T20:57:20.716Z,2.80
2019-01-29T20:59:50.357Z,2.90
2019-01-29T21:02:19.975Z,2.80
2019-01-29T21:04:51.287Z,2.90
2019-01-29T21:07:20.919Z,2.90
2019-01-29T21:09:50.511Z,2.90
2019-01-29T21:12:20.236Z,2.90
2019-01-29T21:14:49.853Z,2.90
2019-01-29T21:17:19.473Z,2.90
2019-01-29T21:19:49.097Z,2.90
2019-01-29T21:22:18.720Z,2.90
2019-01-29T21:24:48.332Z,2.90
2019-01-29T21:27:17.899Z,2.90
2019-01-29T21:30:20.781Z,2.90
2019-01-29T21:32:50.347Z,2.90
2019-01-29T21:35:19.968Z,2.90
2019-01-29T21:37:49.578Z,2.90
2019-01-29T21:40:19.596Z,2.90
2019-01-29T21:42:49.220Z,2.90
2019-01-29T21:45:18.943Z,2.90
2019-01-29T21:47:48.737Z,2.90
2019-01-29T21:50:21.313Z,2.90
2019-01-29T21:52:51.040Z,2.90
2019-01-29T21:55:20.861Z,2.90
2019-01-29T21:57:50.975Z,2.90
2019-01-29T22:00:46.216Z,2.90
2019-01-29T22:03:16.777Z,2.90
2019-01-29T22:05:46.375Z,2.90
2019-01-29T22:08:16.042Z,2.90
2019-01-29T22:10:45.590Z,2.90
2019-01-29T22:13:15.240Z,2.90
2019-01-29T22:15:44.822Z,2.90
2019-01-29T22:18:15.176Z,2.90
2019-01-29T22:20:44.802Z,2.90
2019-01-29T22:23:16.493Z,2.90
2019-01-29T22:25:46.067Z,2.90
2019-01-29T22:28:15.645Z,3.00
2019-01-29T22:30:45.225Z,2.90
2019-01-29T22:33:14.788Z,3.00
2019-01-29T22:35:44.398Z,3.00
2019-01-29T22:38:13.990Z,3.00
2019-01-29T22:40:43.539Z,3.00
2019-01-29T22:43:13.226Z,3.00
2019-01-29T22:45:42.840Z,2.90
2019-01-29T22:48:12.414Z,2.90
2019-01-29T22:51:20.340Z,3.00
2019-01-29T22:53:59.311Z,3.00
2019-01-29T22:56:27.994Z,2.90
2019-01-29T22:58:57.593Z,2.90
2019-01-29T23:01:33.618Z,2.90
